createdAt,value
2018-11-23T00:00:40.422Z,5.45
2018-11-23T00:03:17.072Z,5.52
2018-11-23T00:05:53.479Z,5.36
2018-11-23T00:08:29.983Z,5.34
2018-11-23T00:11:06.679Z,5.27
2018-11-23T00:13:42.887Z,5.16
2018-11-23T00:16:22.227Z,5.28
2018-11-23T00:18:58.673Z,5.26
2018-11-23T00:21:35.517Z,5.33
2018-11-23T00:24:11.955Z,5.15
2018-11-23T00:26:48.390Z,5.22
2018-11-23T00:29:25.519Z,5.24
2018-11-23T00:32:02.230Z,5.25
2018-11-23T00:34:38.722Z,5.23
2018-11-23T00:37:15.806Z,4.98
2018-11-23T00:39:51.894Z,4.74
2018-11-23T00:42:28.482Z,4.83
2018-11-23T00:45:06.952Z,4.86
2018-11-23T00:47:44.185Z,4.75
2018-11-23T00:50:22.998Z,4.82
2018-11-23T00:53:00.975Z,4.57
2018-11-23T00:55:37.863Z,4.43
2018-11-23T00:58:15.477Z,4.46
2018-11-23T01:00:51.891Z,4.54
2018-11-23T01:03:29.128Z,4.52
2018-11-23T01:06:05.583Z,4.76
2018-11-23T01:08:42.184Z,4.88
2018-11-23T01:11:21.859Z,4.93
2018-11-23T01:13:58.748Z,5.04
2018-11-23T01:16:38.540Z,5.06
2018-11-23T01:19:15.721Z,5.01
2018-11-23T01:21:52.616Z,5.03
2018-11-23T01:24:28.942Z,5.05
2018-11-23T01:27:05.237Z,5.09
2018-11-23T01:29:41.428Z,5.15
2018-11-23T01:32:18.731Z,5.18
2018-11-23T01:34:55.826Z,5.09
2018-11-23T01:37:32.099Z,5.22
2018-11-23T01:40:10.704Z,5.14
2018-11-23T01:42:47.513Z,5.10
2018-11-23T01:45:23.613Z,5.12
2018-11-23T01:48:00.363Z,5.02
2018-11-23T01:50:37.017Z,5.04
2018-11-23T01:53:13.303Z,5.08
2018-11-23T01:55:49.769Z,5.10
2018-11-23T01:58:29.482Z,5.00
2018-11-23T02:01:06.468Z,4.93
2018-11-23T02:03:42.901Z,4.74
2018-11-23T02:06:19.247Z,4.74
2018-11-23T02:08:55.469Z,4.69
2018-11-23T02:11:31.881Z,4.54
2018-11-23T02:15:32.665Z,4.60
2018-11-23T02:18:09.663Z,4.44
2018-11-23T02:20:46.036Z,4.44
2018-11-23T02:23:22.502Z,4.43
2018-11-23T02:25:59.034Z,4.29
2018-11-23T02:28:35.527Z,4.12
2018-11-23T02:31:11.781Z,4.11
2018-11-23T02:33:47.802Z,4.05
2018-11-23T02:36:24.139Z,4.25
2018-11-23T02:39:00.740Z,4.29
2018-11-23T02:41:38.286Z,4.23
2018-11-23T02:44:15.803Z,4.20
2018-11-23T02:46:56.507Z,4.23
2018-11-23T02:49:33.195Z,4.07
2018-11-23T02:52:09.452Z,4.06
2018-11-23T02:54:45.930Z,3.90
2018-11-23T02:57:22.304Z,3.91
2018-11-23T02:59:58.964Z,4.03
2018-11-23T03:02:35.902Z,4.06
2018-11-23T03:05:14.581Z,3.72
2018-11-23T03:07:51.718Z,3.81
2018-11-23T03:10:28.124Z,3.82
2018-11-23T03:13:06.662Z,3.82
2018-11-23T03:15:43.534Z,3.80
2018-11-23T03:18:19.999Z,3.90
2018-11-23T03:20:56.356Z,3.94
2018-11-23T03:23:34.417Z,3.84
2018-11-23T03:26:12.277Z,3.82
2018-11-23T03:28:48.634Z,3.85
2018-11-23T03:31:26.231Z,3.80
2018-11-23T03:34:02.486Z,3.67
2018-11-23T03:36:38.856Z,3.64
2018-11-23T03:39:16.099Z,3.64
2018-11-23T03:41:53.459Z,3.69
2018-11-23T03:44:29.750Z,3.70
2018-11-23T03:47:07.058Z,3.59
2018-11-23T03:49:43.182Z,3.66
2018-11-23T03:52:19.751Z,3.58
2018-11-23T03:54:55.863Z,3.71
2018-11-23T03:57:32.250Z,3.76
2018-11-23T04:00:17.370Z,3.54
2018-11-23T04:02:53.338Z,3.56
2018-11-23T04:05:29.706Z,3.50
2018-11-23T04:08:06.027Z,3.27
2018-11-23T04:10:42.349Z,3.43
2018-11-23T04:13:18.817Z,3.46
2018-11-23T04:15:55.038Z,3.42
2018-11-23T04:18:31.446Z,3.41
2018-11-23T04:21:07.805Z,3.51
2018-11-23T04:23:45.374Z,3.67
2018-11-23T04:26:24.826Z,3.69
2018-11-23T04:28:58.443Z,3.76
2018-11-23T04:31:34.752Z,3.73
2018-11-23T04:34:12.396Z,3.81
2018-11-23T04:36:48.786Z,3.74
2018-11-23T04:39:25.187Z,3.72
2018-11-23T04:42:01.484Z,3.53
2018-11-23T04:44:37.778Z,3.67
2018-11-23T04:47:14.239Z,3.65
2018-11-23T04:49:50.641Z,3.69
2018-11-23T04:52:27.602Z,3.65
2018-11-23T04:55:04.000Z,3.68
2018-11-23T04:57:40.467Z,3.57
2018-11-23T05:00:18.184Z,3.63
2018-11-23T05:02:54.581Z,3.44
2018-11-23T05:05:31.040Z,3.19
2018-11-23T05:08:07.278Z,3.71
2018-11-23T05:10:43.448Z,3.57
2018-11-23T05:13:19.749Z,3.62
2018-11-23T05:15:56.254Z,3.54
2018-11-23T05:18:32.772Z,3.52
2018-11-23T05:21:09.226Z,3.46
2018-11-23T05:23:45.549Z,3.29
2018-11-23T05:26:21.974Z,3.27
2018-11-23T05:28:58.239Z,3.04
2018-11-23T05:31:34.399Z,2.86
2018-11-23T05:34:10.670Z,2.93
2018-11-23T05:36:47.357Z,2.66
2018-11-23T05:39:23.695Z,2.77
2018-11-23T05:41:59.948Z,2.88
2018-11-23T05:44:36.195Z,3.00
2018-11-23T05:47:13.159Z,2.86
2018-11-23T05:49:49.641Z,2.90
2018-11-23T05:52:25.959Z,2.94
2018-11-23T05:55:02.732Z,2.96
2018-11-23T05:57:39.385Z,3.00
2018-11-23T06:00:19.772Z,3.09
2018-11-23T06:02:56.059Z,3.27
2018-11-23T06:05:32.339Z,3.18
2018-11-23T06:08:08.828Z,3.65
2018-11-23T06:10:44.959Z,3.83
2018-11-23T06:13:21.468Z,3.77
2018-11-23T06:15:58.766Z,3.57
2018-11-23T06:18:35.259Z,3.24
2018-11-23T06:21:11.782Z,2.79
2018-11-23T06:23:50.382Z,2.60
2018-11-23T06:26:27.874Z,2.92
2018-11-23T06:29:05.628Z,3.09
2018-11-23T06:31:47.905Z,3.29
2018-11-23T06:34:24.358Z,3.37
2018-11-23T06:37:00.423Z,3.20
2018-11-23T06:39:36.870Z,3.44
2018-11-23T06:42:13.194Z,3.61
2018-11-23T06:44:49.594Z,3.68
2018-11-23T06:47:25.806Z,3.73
2018-11-23T06:50:02.594Z,3.30
2018-11-23T06:52:45.857Z,3.31
2018-11-23T06:55:24.900Z,3.32
2018-11-23T06:58:01.206Z,3.63
2018-11-23T07:00:37.761Z,3.73
2018-11-23T07:03:13.944Z,3.95
2018-11-23T07:05:50.378Z,4.07
2018-11-23T07:08:26.690Z,4.26
2018-11-23T07:11:04.298Z,4.39
2018-11-23T07:13:40.595Z,4.55
2018-11-23T07:16:16.763Z,4.69
2018-11-23T07:18:53.090Z,5.03
2018-11-23T07:21:29.450Z,5.11
2018-11-23T07:24:06.236Z,5.09
2018-11-23T07:26:42.605Z,5.27
2018-11-23T07:29:20.390Z,5.41
2018-11-23T07:31:56.794Z,5.49
2018-11-23T07:34:33.458Z,5.53
2018-11-23T07:37:09.906Z,5.55
2018-11-23T07:39:57.343Z,5.75
2018-11-23T07:42:34.315Z,5.90
2018-11-23T07:45:10.871Z,6.05
2018-11-23T07:47:47.278Z,5.81
2018-11-23T07:50:23.578Z,5.81
2018-11-23T07:52:59.676Z,5.83
2018-11-23T07:55:36.169Z,6.00
2018-11-23T07:58:12.739Z,6.28
2018-11-23T08:00:49.086Z,6.46
2018-11-23T08:03:25.538Z,6.46
2018-11-23T08:06:02.131Z,6.51
2018-11-23T08:08:38.502Z,6.54
2018-11-23T08:11:14.810Z,6.62
2018-11-23T08:13:51.289Z,6.74
2018-11-23T08:16:27.691Z,6.87
2018-11-23T08:19:04.430Z,7.11
2018-11-23T08:21:40.931Z,7.28
2018-11-23T08:24:17.367Z,7.43
2018-11-23T08:26:53.705Z,7.35
2018-11-23T08:29:30.265Z,7.24
2018-11-23T08:32:06.747Z,7.15
2018-11-23T08:34:43.081Z,7.32
2018-11-23T08:37:19.428Z,7.79
2018-11-23T08:39:55.904Z,7.88
2018-11-23T08:42:32.091Z,8.01
2018-11-23T08:45:11.482Z,7.96
2018-11-23T08:47:47.630Z,8.32
2018-11-23T08:50:26.683Z,8.16
2018-11-23T08:53:02.801Z,7.88
2018-11-23T08:55:39.088Z,7.98
2018-11-23T08:58:15.632Z,7.81
2018-11-23T09:00:52.104Z,7.51
2018-11-23T09:03:28.451Z,7.24
2018-11-23T09:06:04.813Z,7.78
2018-11-23T09:08:41.066Z,8.39
2018-11-23T09:11:17.455Z,8.75
2018-11-23T09:13:53.754Z,9.22
2018-11-23T09:16:30.185Z,9.16
2018-11-23T09:19:06.832Z,8.56
2018-11-23T09:21:42.932Z,8.57
2018-11-23T09:24:19.391Z,8.74
2018-11-23T09:26:55.660Z,9.35
2018-11-23T09:29:32.496Z,9.61
2018-11-23T09:32:08.749Z,9.96
2018-11-23T09:34:45.080Z,9.79
2018-11-23T09:37:21.523Z,9.41
2018-11-23T09:39:57.828Z,9.10
2018-11-23T09:42:34.139Z,8.81
2018-11-23T09:45:14.183Z,8.30
2018-11-23T09:47:51.647Z,8.22
2018-11-23T09:50:28.328Z,8.45
2018-11-23T09:53:05.358Z,8.53
2018-11-23T09:55:41.604Z,8.73
2018-11-23T09:58:17.929Z,8.98
2018-11-23T10:00:54.974Z,9.42
2018-11-23T10:03:31.359Z,9.39
2018-11-23T10:06:07.924Z,9.57
2018-11-23T10:08:44.321Z,9.49
2018-11-23T10:11:20.671Z,9.50
2018-11-23T10:13:51.860Z,9.43
2018-11-23T10:16:23.253Z,9.43
2018-11-23T10:18:54.573Z,9.12
2018-11-23T10:21:26.614Z,8.91
2018-11-23T10:23:57.983Z,8.85
2018-11-23T10:26:29.402Z,8.91
2018-11-23T10:36:13.950Z,9.14
2018-11-23T10:38:45.323Z,9.13
2018-11-23T10:41:16.626Z,9.23
2018-11-23T10:43:47.876Z,9.24
2018-11-23T10:46:20.479Z,9.63
2018-11-23T10:48:51.751Z,9.74
2018-11-23T10:51:23.044Z,9.92
2018-11-23T10:53:55.383Z,10.13
2018-11-23T10:56:26.796Z,10.24
2018-11-23T10:58:58.309Z,10.17
2018-11-23T11:01:34.701Z,9.66
2018-11-23T11:04:11.372Z,9.87
2018-11-23T11:06:47.757Z,9.72
2018-11-23T11:09:19.044Z,9.47
2018-11-23T11:11:50.668Z,9.42
2018-11-23T11:14:21.902Z,9.57
2018-11-23T11:16:53.194Z,9.58
2018-11-23T11:19:24.520Z,9.44
2018-11-23T11:21:55.896Z,9.44
2018-11-23T11:24:27.121Z,9.68
2018-11-23T11:26:58.437Z,9.67
2018-11-23T11:29:29.993Z,9.89
2018-11-23T11:32:01.272Z,9.83
2018-11-23T11:34:32.571Z,9.98
2018-11-23T11:37:04.621Z,9.99
2018-11-23T11:39:35.922Z,9.76
2018-11-23T11:42:07.179Z,9.73
2018-11-23T11:44:38.369Z,9.91
2018-11-23T11:47:10.287Z,9.88
2018-11-23T11:49:41.595Z,9.66
2018-11-23T11:52:12.895Z,9.79
2018-11-23T11:54:44.156Z,10.12
2018-11-23T11:57:15.616Z,10.22
2018-11-23T11:59:47.845Z,10.57
2018-11-23T12:02:19.095Z,10.34
2018-11-23T12:04:50.339Z,10.21
2018-11-23T12:07:21.970Z,9.50
2018-11-23T12:09:53.266Z,9.35
2018-11-23T12:12:24.601Z,9.57
2018-11-23T12:14:55.789Z,9.11
2018-11-23T12:17:27.062Z,9.21
2018-11-23T12:19:58.352Z,9.08
2018-11-23T12:22:30.568Z,8.98
2018-11-23T12:25:01.809Z,8.82
2018-11-23T12:27:33.067Z,8.92
2018-11-23T12:30:04.748Z,8.90
2018-11-23T12:32:36.054Z,9.02
2018-11-23T12:35:09.165Z,8.57
2018-11-23T12:37:41.277Z,8.72
2018-11-23T12:40:14.082Z,8.85
2018-11-23T12:42:46.127Z,8.85
2018-11-23T12:45:18.801Z,8.95
2018-11-23T12:47:50.067Z,8.98
2018-11-23T12:50:22.745Z,8.90
2018-11-23T12:52:54.372Z,8.89
2018-11-23T12:55:25.658Z,8.92
2018-11-23T12:57:57.058Z,8.76
2018-11-23T13:00:29.209Z,8.67
2018-11-23T13:03:02.853Z,8.71
2018-11-23T13:05:35.400Z,8.83
2018-11-23T13:08:07.654Z,8.92
2018-11-23T13:10:39.000Z,8.53
2018-11-23T13:13:10.430Z,8.84
2018-11-23T13:15:42.419Z,8.84
2018-11-23T13:18:14.261Z,8.80
2018-11-23T13:20:45.754Z,8.78
2018-11-23T13:23:18.819Z,8.88
2018-11-23T13:25:50.345Z,8.91
2018-11-23T13:28:25.236Z,9.02
2018-11-23T13:30:56.661Z,8.98
2018-11-23T13:33:28.074Z,8.91
2018-11-23T13:35:59.474Z,8.62
2018-11-23T13:38:31.045Z,8.53
2018-11-23T13:41:02.408Z,8.49
2018-11-23T13:43:33.706Z,8.50
2018-11-23T13:46:05.080Z,8.47
2018-11-23T13:48:36.323Z,8.55
2018-11-23T13:51:07.565Z,8.62
2018-11-23T13:53:38.851Z,8.52
2018-11-23T13:56:10.774Z,8.46
2018-11-23T13:58:42.198Z,8.48
2018-11-23T14:01:13.522Z,8.43
2018-11-23T14:03:47.171Z,8.52
2018-11-23T14:06:18.494Z,8.50
2018-11-23T14:08:49.788Z,8.38
2018-11-23T14:11:21.178Z,8.33
2018-11-23T14:13:52.490Z,8.20
2018-11-23T14:16:23.710Z,8.32
2018-11-23T14:18:55.097Z,8.32
2018-11-23T14:21:26.524Z,8.14
2018-11-23T14:23:57.966Z,8.04
2018-11-23T14:26:29.215Z,8.07
2018-11-23T14:29:00.475Z,7.95
2018-11-23T14:31:31.821Z,8.00
2018-11-23T14:34:03.107Z,7.93
2018-11-23T14:36:34.688Z,7.81
2018-11-23T14:39:08.103Z,7.87
2018-11-23T14:41:39.633Z,7.76
2018-11-23T14:44:11.058Z,7.91
2018-11-23T14:46:42.330Z,7.78
2018-11-23T14:49:13.581Z,7.86
2018-11-23T14:51:44.845Z,7.95
2018-11-23T14:54:16.084Z,7.98
2018-11-23T14:56:47.401Z,8.06
2018-11-23T14:59:22.593Z,8.02
2018-11-23T15:01:55.486Z,7.99
2018-11-23T15:04:27.738Z,7.86
2018-11-23T15:06:59.038Z,7.85
2018-11-23T15:09:30.416Z,7.89
2018-11-23T15:12:01.794Z,7.81
2018-11-23T15:14:33.183Z,7.77
2018-11-23T15:17:04.535Z,7.74
2018-11-23T15:19:35.890Z,7.92
2018-11-23T15:22:07.373Z,7.87
2018-11-23T15:24:38.683Z,7.81
2018-11-23T15:27:10.089Z,7.68
2018-11-23T15:29:41.704Z,7.56
2018-11-23T15:32:13.025Z,7.59
2018-11-23T15:34:44.273Z,7.54
2018-11-23T15:37:15.549Z,7.55
2018-11-23T15:39:46.831Z,7.38
2018-11-23T15:42:18.232Z,7.43
2018-11-23T15:44:53.378Z,7.52
2018-11-23T15:47:24.672Z,7.38
2018-11-23T15:49:56.120Z,7.26
2018-11-23T15:52:27.521Z,7.39
2018-11-23T15:54:58.835Z,7.41
2018-11-23T15:57:30.066Z,7.35
2018-11-23T16:00:02.733Z,7.31
2018-11-23T16:02:36.671Z,7.35
2018-11-23T16:05:08.058Z,7.28
2018-11-23T16:07:39.309Z,7.23
2018-11-23T16:10:18.793Z,7.25
2018-11-23T16:12:51.752Z,7.23
2018-11-23T16:15:23.686Z,7.22
2018-11-23T16:17:55.236Z,7.35
2018-11-23T16:20:29.041Z,7.33
2018-11-23T16:23:02.680Z,7.30
2018-11-23T16:25:34.206Z,7.33
2018-11-23T16:28:06.911Z,7.41
2018-11-23T16:30:40.716Z,7.38
2018-11-23T16:33:14.331Z,7.40
2018-11-23T16:35:45.707Z,7.38
2018-11-23T16:38:19.303Z,7.15
2018-11-23T16:40:52.415Z,7.09
2018-11-23T16:43:23.815Z,7.16
2018-11-23T16:45:55.459Z,7.05
2018-11-23T16:48:26.704Z,7.26
2018-11-23T16:50:58.728Z,7.29
2018-11-23T16:53:29.977Z,7.16
2018-11-23T16:56:01.197Z,7.17
2018-11-23T16:58:33.084Z,7.15
2018-11-23T17:01:04.668Z,7.20
2018-11-23T17:03:35.998Z,7.10
2018-11-23T17:06:07.335Z,7.16
2018-11-23T17:08:39.886Z,7.00
2018-11-23T17:11:09.953Z,7.08
2018-11-23T17:13:41.348Z,7.11
2018-11-23T17:16:13.609Z,7.19
2018-11-23T17:18:44.899Z,7.17
2018-11-23T17:21:16.361Z,7.08
2018-11-23T17:23:47.663Z,7.01
2018-11-23T17:26:19.271Z,6.96
2018-11-23T17:28:50.613Z,6.92
2018-11-23T17:31:21.955Z,6.87
2018-11-23T17:33:53.276Z,6.99
2018-11-23T17:36:27.347Z,6.96
2018-11-23T17:38:58.643Z,6.87
2018-11-23T17:41:30.156Z,6.80
2018-11-23T17:44:01.583Z,6.91
2018-11-23T17:46:32.755Z,6.91
2018-11-23T17:49:03.979Z,6.93
2018-11-23T17:51:35.293Z,6.91
2018-11-23T17:54:12.560Z,6.93
2018-11-23T17:56:43.880Z,7.00
2018-11-23T17:59:15.099Z,6.95
2018-11-23T18:01:46.460Z,6.86
2018-11-23T18:04:17.712Z,6.84
2018-11-23T18:06:50.120Z,6.78
2018-11-23T18:09:21.276Z,6.80
2018-11-23T18:11:52.669Z,6.69
2018-11-23T18:14:23.943Z,6.60
2018-11-23T18:16:55.477Z,6.68
2018-11-23T18:19:27.561Z,6.71
2018-11-23T18:21:58.862Z,6.70
2018-11-23T18:24:30.455Z,6.69
2018-11-23T18:27:01.756Z,6.66
2018-11-23T18:29:33.005Z,6.72
2018-11-23T18:32:04.302Z,6.83
2018-11-23T18:34:35.651Z,6.95
2018-11-23T18:37:07.008Z,6.84
2018-11-23T18:39:38.371Z,6.81
2018-11-23T18:42:10.232Z,6.75
2018-11-23T18:44:41.494Z,6.78
2018-11-23T18:47:15.476Z,6.89
2018-11-23T18:49:46.977Z,6.90
2018-11-23T18:52:18.215Z,6.83
2018-11-23T18:54:50.061Z,6.72
2018-11-23T18:57:21.735Z,6.82
2018-11-23T18:59:52.968Z,6.79
2018-11-23T19:02:24.655Z,6.71
2018-11-23T19:04:57.537Z,6.68
2018-11-23T19:07:28.853Z,6.68
2018-11-23T19:10:00.091Z,6.83
2018-11-23T19:12:34.628Z,6.77
2018-11-23T19:15:11.035Z,6.89
2018-11-23T19:17:42.243Z,7.25
2018-11-23T19:20:21.268Z,7.35
2018-11-23T19:22:54.562Z,7.05
2018-11-23T19:25:26.470Z,6.89
2018-11-23T19:27:57.841Z,6.81
2018-11-23T19:30:29.135Z,6.72
2018-11-23T19:33:00.314Z,6.75
2018-11-23T19:35:31.539Z,6.70
2018-11-23T19:38:02.790Z,6.70
2018-11-23T19:40:33.919Z,6.83
2018-11-23T19:43:05.809Z,6.84
2018-11-23T19:45:37.128Z,6.73
2018-11-23T19:48:08.836Z,6.60
2018-11-23T19:50:40.054Z,6.68
2018-11-23T19:53:11.343Z,6.53
2018-11-23T19:55:42.638Z,6.45
2018-11-23T19:58:13.883Z,6.42
2018-11-23T20:00:45.102Z,6.45
2018-11-23T20:03:18.594Z,6.37
2018-11-23T20:05:50.180Z,6.35
2018-11-23T20:08:21.485Z,6.49
2018-11-23T20:10:52.923Z,6.50
2018-11-23T20:13:24.845Z,6.47
2018-11-23T20:15:56.376Z,6.45
2018-11-23T20:18:28.573Z,6.47
2018-11-23T20:20:59.913Z,6.41
2018-11-23T20:23:31.179Z,6.33
2018-11-23T20:26:02.691Z,6.49
2018-11-23T20:28:35.775Z,6.43
2018-11-23T20:31:10.466Z,6.45
2018-11-23T20:33:44.535Z,6.41
2018-11-23T20:36:16.111Z,6.37
2018-11-23T20:38:48.080Z,6.39
2018-11-23T20:41:20.407Z,6.41
2018-11-23T20:43:56.689Z,6.34
2018-11-23T20:46:28.465Z,6.28
2018-11-23T20:49:01.063Z,6.12
2018-11-23T20:51:35.329Z,5.98
2018-11-23T20:54:07.276Z,5.60
2018-11-23T20:56:48.631Z,5.90
2018-11-23T20:59:43.789Z,6.03
2018-11-23T21:02:21.656Z,5.99
2018-11-23T21:04:59.579Z,5.91
2018-11-23T21:07:36.947Z,5.80
2018-11-23T21:10:20.262Z,5.74
2018-11-23T21:15:52.225Z,5.74
2018-11-23T21:18:29.484Z,5.75
2018-11-23T21:21:06.367Z,5.64
2018-11-23T21:23:43.837Z,5.68
2018-11-23T21:26:20.917Z,5.61
2018-11-23T21:28:57.506Z,5.56
2018-11-23T21:31:37.131Z,5.64
2018-11-23T21:56:00.919Z,5.18
2018-11-23T21:58:37.455Z,5.22
2018-11-23T22:01:13.988Z,5.19
2018-11-23T22:03:50.903Z,5.30
2018-11-23T22:06:28.386Z,5.36
2018-11-23T22:09:07.156Z,5.34
2018-11-23T22:11:43.625Z,5.36
2018-11-23T22:14:19.978Z,5.31
2018-11-23T22:16:56.300Z,5.31
2018-11-23T22:19:33.520Z,5.30
2018-11-23T22:22:09.646Z,5.19
2018-11-23T22:24:46.134Z,5.03
2018-11-23T22:27:22.462Z,4.79
2018-11-23T22:29:59.169Z,4.63
2018-11-23T22:32:35.385Z,4.55
2018-11-23T22:35:12.514Z,4.66
2018-11-23T22:37:48.751Z,4.57
2018-11-23T22:40:25.307Z,4.53
2018-11-23T22:43:01.538Z,4.63
2018-11-23T22:45:37.921Z,4.46
2018-11-23T22:48:14.203Z,4.48
2018-11-23T22:50:50.280Z,4.83
2018-11-23T22:53:27.392Z,4.97
2018-11-23T22:56:03.517Z,4.86
2018-11-23T22:58:39.677Z,4.81
2018-11-23T23:01:16.182Z,4.77
2018-11-23T23:03:52.447Z,4.73
2018-11-23T23:06:28.930Z,4.68
2018-11-23T23:09:08.220Z,4.61
2018-11-23T23:11:44.661Z,4.57
2018-11-23T23:14:20.992Z,4.52
2018-11-23T23:16:57.260Z,4.50
2018-11-23T23:19:33.804Z,4.48
2018-11-23T23:22:09.966Z,4.55
2018-11-23T23:24:46.448Z,4.50
2018-11-23T23:27:22.543Z,4.43
2018-11-23T23:29:58.917Z,4.40
2018-11-23T23:32:35.363Z,4.49
2018-11-23T23:35:12.984Z,4.33
2018-11-23T23:37:49.314Z,4.43
2018-11-23T23:40:25.571Z,4.31
2018-11-23T23:43:01.916Z,4.27
2018-11-23T23:45:37.976Z,4.19
2018-11-23T23:48:14.426Z,4.22
2018-11-23T23:50:50.756Z,4.10
2018-11-23T23:53:27.168Z,3.90
2018-11-23T23:56:03.552Z,3.93
2018-11-23T23:58:39.927Z,3.69
